createdAt,value
2018-03-29T00:00:38.243Z,0
2018-03-29T00:01:39.883Z,0
2018-03-29T00:02:41.530Z,0
2018-03-29T00:03:43.172Z,0
2018-03-29T00:04:44.830Z,0
2018-03-29T00:05:46.479Z,0
2018-03-29T00:06:48.118Z,0
2018-03-29T00:07:49.783Z,0
2018-03-29T00:08:51.432Z,0
2018-03-29T00:09:53.095Z,0
2018-03-29T00:10:54.746Z,0
2018-03-29T00:11:56.396Z,0
2018-03-29T00:12:58.036Z,0
2018-03-29T00:13:59.685Z,0
2018-03-29T00:15:01.336Z,0
2018-03-29T00:16:02.984Z,0
2018-03-29T00:17:04.624Z,0
2018-03-29T00:18:06.301Z,0
2018-03-29T00:19:07.967Z,0
2018-03-29T00:20:09.615Z,0
2018-03-29T00:21:12.026Z,0
2018-03-29T00:22:13.688Z,0
2018-03-29T00:23:15.339Z,0
2018-03-29T00:24:16.998Z,0
2018-03-29T00:25:18.694Z,0
2018-03-29T00:26:20.300Z,0
2018-03-29T00:27:21.946Z,0
2018-03-29T00:28:23.598Z,0
2018-03-29T00:29:25.240Z,0
2018-03-29T00:30:26.900Z,0
2018-03-29T00:31:28.542Z,0
2018-03-29T00:32:30.190Z,0
2018-03-29T00:33:31.866Z,0
2018-03-29T00:34:33.514Z,0
2018-03-29T00:35:36.032Z,0
2018-03-29T00:36:37.684Z,0
2018-03-29T00:37:39.336Z,0
2018-03-29T00:38:40.985Z,0
2018-03-29T00:39:42.628Z,0
2018-03-29T00:40:44.270Z,0
2018-03-29T00:41:45.917Z,0
2018-03-29T00:42:47.566Z,0
2018-03-29T00:43:49.214Z,0
2018-03-29T00:44:50.856Z,0
2018-03-29T00:45:52.503Z,0
2018-03-29T00:46:54.159Z,0
2018-03-29T00:47:55.802Z,0
2018-03-29T00:48:57.453Z,0
2018-03-29T00:49:59.095Z,0
2018-03-29T00:51:00.751Z,0
2018-03-29T00:52:02.401Z,0
2018-03-29T00:53:04.063Z,0
2018-03-29T00:54:05.695Z,0
2018-03-29T00:55:07.350Z,0
2018-03-29T00:56:08.996Z,0
2018-03-29T00:57:10.642Z,0
2018-03-29T00:58:12.305Z,0
2018-03-29T00:59:13.947Z,0
2018-03-29T01:00:15.590Z,0
2018-03-29T01:01:17.250Z,0
2018-03-29T01:02:18.883Z,0
2018-03-29T01:03:20.526Z,0
2018-03-29T01:04:22.174Z,0
2018-03-29T01:05:23.839Z,0
2018-03-29T01:06:25.488Z,0
2018-03-29T01:07:27.138Z,0
2018-03-29T01:08:28.783Z,0
2018-03-29T01:09:30.433Z,0
2018-03-29T01:10:32.083Z,0
2018-03-29T01:11:33.745Z,0
2018-03-29T01:12:35.389Z,0
2018-03-29T01:13:37.039Z,0
2018-03-29T01:14:38.689Z,0
2018-03-29T01:15:40.352Z,0
2018-03-29T01:16:41.987Z,0
2018-03-29T01:17:43.640Z,0
2018-03-29T01:18:45.311Z,0
2018-03-29T01:19:46.960Z,0
2018-03-29T01:20:48.588Z,0
2018-03-29T01:21:50.242Z,0
2018-03-29T01:22:51.886Z,0
2018-03-29T01:23:53.535Z,0
2018-03-29T01:24:55.180Z,0
2018-03-29T01:25:56.828Z,0
2018-03-29T01:26:58.491Z,0
2018-03-29T01:28:00.138Z,0
2018-03-29T01:29:01.797Z,0
2018-03-29T01:30:03.440Z,0
2018-03-29T01:31:05.095Z,0
2018-03-29T01:32:06.761Z,0
2018-03-29T01:33:08.410Z,0
2018-03-29T01:34:10.061Z,0
2018-03-29T01:35:11.703Z,0
2018-03-29T01:36:13.354Z,0
2018-03-29T01:37:15.011Z,0
2018-03-29T01:38:16.646Z,0
2018-03-29T01:39:18.291Z,0
2018-03-29T01:40:19.940Z,0
2018-03-29T01:41:21.590Z,0
2018-03-29T01:42:23.274Z,0
2018-03-29T01:43:24.914Z,0
2018-03-29T01:44:26.572Z,0
2018-03-29T01:45:28.222Z,0
2018-03-29T01:46:29.868Z,0
2018-03-29T01:47:31.509Z,0
2018-03-29T01:48:33.160Z,0
2018-03-29T01:49:34.804Z,0
2018-03-29T01:50:36.457Z,0
2018-03-29T01:51:38.108Z,0
2018-03-29T01:52:39.760Z,0
2018-03-29T01:53:41.403Z,0
2018-03-29T01:54:43.052Z,0
2018-03-29T01:55:44.703Z,0
2018-03-29T02:02:14.343Z,0
2018-03-29T02:03:15.990Z,0
2018-03-29T02:05:07.795Z,0
2018-03-29T02:06:09.434Z,0
2018-03-29T02:08:01.287Z,0
2018-03-29T02:09:02.916Z,0
2018-03-29T02:10:04.578Z,0
2018-03-29T02:11:06.217Z,0
2018-03-29T02:12:07.864Z,0
2018-03-29T02:13:09.520Z,0
2018-03-29T02:14:11.171Z,0
2018-03-29T02:15:12.815Z,0
2018-03-29T02:16:14.464Z,0
2018-03-29T02:17:16.113Z,0
2018-03-29T02:18:17.759Z,0
2018-03-29T02:19:19.402Z,0
2018-03-29T02:20:21.051Z,0
2018-03-29T02:21:22.850Z,0
2018-03-29T02:22:24.496Z,0
2018-03-29T02:23:26.136Z,0
2018-03-29T02:24:27.805Z,0
2018-03-29T02:25:29.438Z,0
2018-03-29T02:26:31.082Z,0
2018-03-29T02:27:32.733Z,0
2018-03-29T02:28:34.377Z,0
2018-03-29T02:29:36.022Z,0
2018-03-29T02:30:37.663Z,0
2018-03-29T02:31:39.307Z,0
2018-03-29T02:32:40.956Z,0
2018-03-29T02:33:42.595Z,0
2018-03-29T02:34:44.242Z,0
2018-03-29T02:35:45.896Z,0
2018-03-29T02:36:47.539Z,0
2018-03-29T02:37:49.193Z,0
2018-03-29T02:38:50.832Z,0
2018-03-29T02:39:52.483Z,0
2018-03-29T02:40:54.113Z,0
2018-03-29T02:41:55.772Z,0
2018-03-29T02:42:57.418Z,0
2018-03-29T02:43:59.068Z,0
2018-03-29T02:45:00.717Z,0
2018-03-29T02:46:02.357Z,0
2018-03-29T02:47:04.007Z,0
2018-03-29T02:48:05.658Z,0
2018-03-29T02:49:07.302Z,0
2018-03-29T02:50:08.961Z,0
2018-03-29T02:51:10.604Z,0
2018-03-29T02:52:12.262Z,0
2018-03-29T02:53:13.894Z,0
2018-03-29T02:54:15.534Z,0
2018-03-29T02:55:17.185Z,0
2018-03-29T02:56:18.840Z,0
2018-03-29T02:57:20.487Z,0
2018-03-29T02:58:22.136Z,0
2018-03-29T02:59:23.795Z,0
2018-03-29T03:00:25.443Z,0
2018-03-29T03:01:27.051Z,0
2018-03-29T03:02:28.695Z,0
2018-03-29T03:03:30.348Z,0
2018-03-29T03:04:31.987Z,0
2018-03-29T03:05:33.644Z,0
2018-03-29T03:06:35.290Z,0
2018-03-29T03:07:36.936Z,0
2018-03-29T03:08:38.582Z,0
2018-03-29T03:09:40.228Z,0
2018-03-29T03:10:41.881Z,0
2018-03-29T03:11:43.524Z,0
2018-03-29T03:12:45.173Z,0
2018-03-29T03:13:46.822Z,0
2018-03-29T03:14:48.467Z,0
2018-03-29T03:15:50.115Z,0
2018-03-29T03:16:51.765Z,0
2018-03-29T03:17:53.482Z,0
2018-03-29T03:18:55.128Z,0
2018-03-29T03:19:56.781Z,0
2018-03-29T03:20:58.496Z,0
2018-03-29T03:22:00.140Z,0
2018-03-29T03:23:01.849Z,0
2018-03-29T03:24:03.445Z,0
2018-03-29T03:25:05.093Z,0
2018-03-29T03:26:06.748Z,0
2018-03-29T03:27:08.388Z,0
2018-03-29T03:28:10.034Z,0
2018-03-29T03:29:11.686Z,0
2018-03-29T03:30:13.327Z,0
2018-03-29T03:31:14.986Z,0
2018-03-29T03:32:16.640Z,0
2018-03-29T03:33:18.924Z,0
2018-03-29T03:34:20.560Z,0
2018-03-29T03:35:22.218Z,0
2018-03-29T03:36:23.868Z,0
2018-03-29T03:37:25.519Z,0
2018-03-29T03:38:27.262Z,0
2018-03-29T03:39:28.919Z,0
2018-03-29T03:40:30.578Z,0
2018-03-29T03:41:32.228Z,0
2018-03-29T03:42:33.880Z,0
2018-03-29T03:43:35.520Z,0
2018-03-29T03:44:37.178Z,0
2018-03-29T03:45:38.816Z,0
2018-03-29T03:46:40.514Z,0
2018-03-29T03:47:42.184Z,0
2018-03-29T03:48:43.822Z,0
2018-03-29T03:49:45.468Z,0
2018-03-29T03:50:47.104Z,0
2018-03-29T03:51:48.761Z,0
2018-03-29T03:52:50.408Z,0
2018-03-29T03:53:52.054Z,0
2018-03-29T03:54:53.697Z,0
2018-03-29T03:55:55.361Z,0
2018-03-29T03:56:56.997Z,0
2018-03-29T03:57:58.638Z,0
2018-03-29T03:59:00.283Z,0
2018-03-29T04:00:01.937Z,0
2018-03-29T04:01:03.587Z,0
2018-03-29T04:02:05.231Z,0
2018-03-29T04:03:06.945Z,0
2018-03-29T04:04:08.585Z,0
2018-03-29T04:05:10.232Z,0
2018-03-29T04:06:11.878Z,0
2018-03-29T04:07:13.533Z,0
2018-03-29T04:08:15.176Z,0
2018-03-29T04:09:16.826Z,0
2018-03-29T04:10:18.471Z,0
2018-03-29T04:11:20.125Z,0
2018-03-29T04:12:21.765Z,0
2018-03-29T04:13:23.587Z,0
2018-03-29T04:14:25.236Z,0
2018-03-29T04:15:26.883Z,0
2018-03-29T04:16:28.530Z,0
2018-03-29T04:17:30.176Z,0
2018-03-29T04:18:31.820Z,0
2018-03-29T04:19:33.526Z,0
2018-03-29T04:20:35.140Z,0
2018-03-29T04:21:36.785Z,0
2018-03-29T04:22:38.456Z,0
2018-03-29T04:23:40.102Z,0
2018-03-29T04:24:41.764Z,0
2018-03-29T04:25:43.407Z,0
2018-03-29T04:26:45.060Z,0
2018-03-29T04:27:46.708Z,0
2018-03-29T04:28:48.359Z,0
2018-03-29T04:29:50.009Z,0
2018-03-29T04:30:51.650Z,0
2018-03-29T04:31:53.296Z,0
2018-03-29T04:32:54.947Z,0
2018-03-29T04:33:56.601Z,0
2018-03-29T04:34:58.253Z,0
2018-03-29T04:35:59.912Z,0
2018-03-29T04:37:01.559Z,0
2018-03-29T04:38:03.202Z,0
2018-03-29T04:39:04.849Z,0
2018-03-29T04:40:06.502Z,0
2018-03-29T04:41:08.137Z,0
2018-03-29T04:42:09.774Z,0
2018-03-29T04:43:11.438Z,0
2018-03-29T04:44:13.075Z,0
2018-03-29T04:45:14.731Z,0
2018-03-29T04:46:16.381Z,0
2018-03-29T04:47:18.026Z,0
2018-03-29T04:48:19.675Z,0
2018-03-29T04:49:21.327Z,0
2018-03-29T04:50:22.981Z,0
2018-03-29T04:51:24.639Z,0
2018-03-29T04:52:26.349Z,0
2018-03-29T04:53:27.987Z,0
2018-03-29T04:54:29.638Z,0
2018-03-29T04:55:31.319Z,0
2018-03-29T04:56:32.951Z,0
2018-03-29T04:57:34.591Z,0
2018-03-29T04:58:36.245Z,0
2018-03-29T04:59:37.891Z,0
2018-03-29T05:00:39.540Z,0
2018-03-29T05:01:41.190Z,0
2018-03-29T05:02:42.840Z,0
2018-03-29T05:03:44.484Z,0
2018-03-29T05:04:46.138Z,0
2018-03-29T05:05:47.790Z,0
2018-03-29T05:06:49.439Z,0
2018-03-29T05:07:51.093Z,5
2018-03-29T05:08:52.742Z,5
2018-03-29T05:09:54.396Z,5
2018-03-29T05:10:56.041Z,5
2018-03-29T05:11:57.686Z,5
2018-03-29T05:12:59.327Z,5
2018-03-29T05:14:00.970Z,5
2018-03-29T05:15:02.633Z,5
2018-03-29T05:16:04.283Z,5
2018-03-29T05:17:05.932Z,5
2018-03-29T05:18:07.581Z,5
2018-03-29T05:19:09.236Z,10
2018-03-29T05:20:10.889Z,10
2018-03-29T05:21:12.553Z,10
2018-03-29T05:22:14.819Z,20
2018-03-29T05:23:16.476Z,25
2018-03-29T05:24:18.122Z,35
2018-03-29T05:25:19.780Z,35
2018-03-29T05:26:21.432Z,35
2018-03-29T05:27:23.089Z,35
2018-03-29T05:28:24.736Z,45
2018-03-29T05:29:26.392Z,45
2018-03-29T05:30:28.042Z,45
2018-03-29T05:31:29.806Z,50
2018-03-29T05:32:31.453Z,55
2018-03-29T05:33:33.106Z,55
2018-03-29T05:34:34.760Z,55
2018-03-29T05:35:36.401Z,60
2018-03-29T05:36:38.060Z,60
2018-03-29T05:37:39.705Z,65
2018-03-29T05:38:41.359Z,65
2018-03-29T05:39:43.018Z,70
2018-03-29T05:40:44.678Z,65
2018-03-29T05:41:46.326Z,70
2018-03-29T05:42:47.980Z,65
2018-03-29T05:43:49.630Z,70
2018-03-29T05:44:51.292Z,65
2018-03-29T05:45:53.024Z,65
2018-03-29T05:46:54.688Z,65
2018-03-29T05:47:56.330Z,65
2018-03-29T05:48:57.981Z,70
2018-03-29T05:49:59.637Z,75
2018-03-29T05:51:01.282Z,70
2018-03-29T05:52:02.938Z,70
2018-03-29T05:53:04.596Z,65
2018-03-29T05:54:06.243Z,65
2018-03-29T05:55:07.904Z,60
2018-03-29T06:01:40.555Z,80
2018-03-29T06:02:42.204Z,85
2018-03-29T06:03:43.858Z,95
2018-03-29T06:04:45.516Z,105
2018-03-29T06:05:47.169Z,110
2018-03-29T06:06:48.813Z,120
2018-03-29T06:07:50.566Z,155
2018-03-29T06:08:52.221Z,180
2018-03-29T06:09:53.863Z,195
2018-03-29T06:10:55.519Z,210
2018-03-29T06:11:57.176Z,215
2018-03-29T06:12:58.828Z,220
2018-03-29T06:14:00.478Z,245
2018-03-29T06:15:02.142Z,255
2018-03-29T06:16:03.837Z,245
2018-03-29T06:17:05.446Z,205
2018-03-29T06:18:07.156Z,200
2018-03-29T06:19:08.811Z,210
2018-03-29T06:20:10.504Z,205
2018-03-29T06:21:12.162Z,200
2018-03-29T06:22:13.813Z,170
2018-03-29T06:23:15.548Z,160
2018-03-29T06:24:17.130Z,170
2018-03-29T06:25:18.790Z,185
2018-03-29T06:26:20.445Z,190
2018-03-29T06:27:22.104Z,170
2018-03-29T06:28:23.761Z,135
2018-03-29T06:29:25.469Z,115
2018-03-29T06:30:27.125Z,90
2018-03-29T06:31:28.779Z,100
2018-03-29T06:32:30.472Z,110
2018-03-29T06:33:32.144Z,110
2018-03-29T06:34:33.808Z,115
2018-03-29T06:35:35.465Z,130
2018-03-29T06:36:37.118Z,160
2018-03-29T06:37:38.773Z,155
2018-03-29T06:38:40.433Z,150
2018-03-29T06:39:42.077Z,175
2018-03-29T06:40:43.738Z,180
2018-03-29T06:41:45.389Z,150
2018-03-29T06:42:47.043Z,150
2018-03-29T06:43:48.702Z,140
2018-03-29T06:44:51.315Z,135
2018-03-29T06:45:52.963Z,155
2018-03-29T06:46:54.630Z,205
2018-03-29T06:47:56.277Z,235
2018-03-29T06:48:57.932Z,265
2018-03-29T06:49:59.582Z,300
2018-03-29T06:51:01.242Z,350
2018-03-29T06:52:02.913Z,395
2018-03-29T06:53:04.566Z,435
2018-03-29T06:54:06.228Z,455
2018-03-29T06:55:07.874Z,450
2018-03-29T06:56:09.532Z,430
2018-03-29T06:57:11.194Z,420
2018-03-29T06:58:12.854Z,405
2018-03-29T06:59:14.497Z,370
2018-03-29T07:00:16.154Z,355
2018-03-29T07:01:17.815Z,355
2018-03-29T07:02:19.465Z,295
2018-03-29T07:03:21.124Z,280
2018-03-29T07:04:22.778Z,310
2018-03-29T07:05:24.445Z,270
2018-03-29T07:06:26.131Z,235
2018-03-29T07:07:27.791Z,285
2018-03-29T07:08:29.434Z,330
2018-03-29T07:09:31.084Z,375
2018-03-29T07:10:32.737Z,355
2018-03-29T07:11:34.401Z,345
2018-03-29T07:12:36.069Z,475
2018-03-29T07:13:37.720Z,485
2018-03-29T07:14:39.385Z,345
2018-03-29T07:15:41.038Z,275
2018-03-29T07:16:42.698Z,285
2018-03-29T07:17:44.354Z,400
2018-03-29T07:18:46.016Z,530
2018-03-29T07:19:47.716Z,380
2018-03-29T07:20:49.369Z,310
2018-03-29T07:21:51.041Z,275
2018-03-29T07:22:52.690Z,260
2018-03-29T07:23:54.342Z,270
2018-03-29T07:24:56.010Z,240
2018-03-29T07:25:57.662Z,185
2018-03-29T07:27:00.171Z,160
2018-03-29T07:28:01.834Z,165
2018-03-29T07:29:03.494Z,160
2018-03-29T07:30:05.167Z,195
2018-03-29T07:31:06.817Z,195
2018-03-29T07:32:08.480Z,220
2018-03-29T07:33:10.159Z,255
2018-03-29T07:34:11.812Z,290
2018-03-29T07:35:13.474Z,340
2018-03-29T07:36:15.129Z,345
2018-03-29T07:37:16.780Z,305
2018-03-29T07:38:18.439Z,310
2018-03-29T07:39:20.091Z,350
2018-03-29T07:40:21.744Z,410
2018-03-29T07:41:23.404Z,395
2018-03-29T07:42:25.061Z,390
2018-03-29T07:43:26.719Z,450
2018-03-29T07:44:28.375Z,495
2018-03-29T07:45:30.028Z,575
2018-03-29T07:46:31.723Z,590
2018-03-29T07:47:33.392Z,630
2018-03-29T07:48:35.039Z,710
2018-03-29T07:49:36.696Z,805
2018-03-29T07:50:38.375Z,785
2018-03-29T07:51:40.038Z,845
2018-03-29T07:52:41.711Z,980
2018-03-29T07:53:43.415Z,910
2018-03-29T07:54:45.037Z,635
2018-03-29T07:55:46.695Z,605
2018-03-29T07:56:48.372Z,505
2018-03-29T07:57:50.024Z,460
2018-03-29T07:58:51.680Z,525
2018-03-29T07:59:53.333Z,605
2018-03-29T08:00:54.994Z,490
2018-03-29T08:01:56.657Z,520
2018-03-29T08:02:58.361Z,480
2018-03-29T08:04:00.026Z,430
2018-03-29T08:05:01.681Z,565
2018-03-29T08:06:03.353Z,720
2018-03-29T08:07:05.006Z,750
2018-03-29T08:08:06.659Z,640
2018-03-29T08:09:08.320Z,555
2018-03-29T08:10:09.986Z,560
2018-03-29T08:11:11.637Z,500
2018-03-29T08:12:13.305Z,545
2018-03-29T08:13:15.007Z,650
2018-03-29T08:14:16.667Z,635
2018-03-29T08:15:18.318Z,645
2018-03-29T08:16:20.288Z,595
2018-03-29T08:17:21.937Z,450
2018-03-29T08:18:23.595Z,310
2018-03-29T08:19:25.264Z,245
2018-03-29T08:20:26.919Z,285
2018-03-29T08:21:28.563Z,260
2018-03-29T08:22:30.255Z,220
2018-03-29T08:23:31.909Z,210
2018-03-29T08:24:33.585Z,205
2018-03-29T08:25:39.999Z,165
2018-03-29T08:26:41.653Z,135
2018-03-29T08:27:43.309Z,125
2018-03-29T08:28:44.962Z,125
2018-03-29T08:29:48.448Z,125
2018-03-29T08:30:50.110Z,115
2018-03-29T08:31:51.761Z,120
2018-03-29T08:32:53.439Z,120
2018-03-29T08:33:55.093Z,115
2018-03-29T08:34:56.745Z,115
2018-03-29T08:35:58.402Z,120
2018-03-29T08:37:00.070Z,120
2018-03-29T08:38:01.718Z,135
2018-03-29T08:39:03.378Z,145
2018-03-29T08:40:05.032Z,140
2018-03-29T08:41:06.693Z,115
2018-03-29T08:42:08.345Z,95
2018-03-29T08:43:10.000Z,105
2018-03-29T08:44:11.660Z,110
2018-03-29T08:45:13.392Z,105
2018-03-29T08:46:15.054Z,105
2018-03-29T08:47:16.730Z,100
2018-03-29T08:48:18.378Z,100
2018-03-29T08:49:20.028Z,100
2018-03-29T08:50:21.697Z,110
2018-03-29T08:51:23.347Z,105
2018-03-29T08:52:25.007Z,105
2018-03-29T08:53:26.662Z,100
2018-03-29T08:54:28.373Z,95
2018-03-29T08:55:30.020Z,90
2018-03-29T08:56:31.677Z,95
2018-03-29T08:57:33.343Z,95
2018-03-29T08:58:34.996Z,115
2018-03-29T08:59:36.659Z,125
2018-03-29T09:00:38.353Z,135
2018-03-29T09:01:40.015Z,145
2018-03-29T09:02:41.868Z,150
2018-03-29T09:03:43.531Z,145
2018-03-29T09:04:45.169Z,180
2018-03-29T09:05:46.858Z,200
2018-03-29T09:06:48.572Z,220
2018-03-29T09:07:50.230Z,190
2018-03-29T09:08:51.913Z,175
2018-03-29T09:09:53.568Z,215
2018-03-29T09:10:55.229Z,315
2018-03-29T09:11:56.882Z,415
2018-03-29T09:12:58.687Z,490
2018-03-29T09:14:00.348Z,465
2018-03-29T09:15:02.005Z,490
2018-03-29T09:16:03.671Z,530
2018-03-29T09:17:05.332Z,480
2018-03-29T09:18:07.010Z,470
2018-03-29T09:19:08.653Z,385
2018-03-29T09:20:10.319Z,370
2018-03-29T09:21:11.970Z,450
2018-03-29T09:22:13.636Z,645
2018-03-29T09:23:15.309Z,825
2018-03-29T09:24:16.966Z,915
2018-03-29T09:25:18.627Z,1005
2018-03-29T09:26:20.284Z,960
2018-03-29T09:27:21.949Z,960
2018-03-29T09:28:23.731Z,920
2018-03-29T09:29:25.389Z,945
2018-03-29T09:30:27.052Z,985
2018-03-29T09:31:28.717Z,1005
2018-03-29T09:32:30.379Z,980
2018-03-29T09:33:32.055Z,980
2018-03-29T09:34:33.715Z,915
2018-03-29T09:35:35.369Z,845
2018-03-29T09:36:37.032Z,665
2018-03-29T09:37:38.686Z,725
2018-03-29T09:38:40.396Z,770
2018-03-29T09:39:42.050Z,595
2018-03-29T09:40:43.716Z,530
2018-03-29T09:41:45.375Z,610
2018-03-29T09:42:47.045Z,605
2018-03-29T09:43:48.718Z,710
2018-03-29T09:44:50.363Z,635
2018-03-29T09:45:52.023Z,550
2018-03-29T09:46:53.681Z,610
2018-03-29T09:47:55.346Z,695
2018-03-29T09:48:57.017Z,680
2018-03-29T09:49:58.742Z,630
2018-03-29T09:51:00.396Z,510
2018-03-29T09:52:02.073Z,510
2018-03-29T09:53:03.726Z,515
2018-03-29T09:54:05.391Z,490
2018-03-29T09:55:07.046Z,520
2018-03-29T10:01:18.659Z,445
2018-03-29T10:02:20.316Z,475
2018-03-29T10:04:12.199Z,470
2018-03-29T10:05:13.850Z,505
2018-03-29T10:06:15.513Z,480
2018-03-29T10:07:17.174Z,375
2018-03-29T10:08:18.829Z,320
2018-03-29T10:09:20.497Z,280
2018-03-29T10:10:22.198Z,225
2018-03-29T10:11:23.841Z,190
2018-03-29T10:12:25.511Z,205
2018-03-29T10:13:27.160Z,240
2018-03-29T10:14:28.844Z,240
2018-03-29T10:15:30.502Z,275
2018-03-29T10:16:32.160Z,285
2018-03-29T10:17:34.214Z,250
2018-03-29T10:18:35.906Z,220
2018-03-29T10:19:37.560Z,220
2018-03-29T10:20:39.226Z,270
2018-03-29T10:21:40.890Z,350
2018-03-29T10:22:42.536Z,470
2018-03-29T10:23:44.188Z,570
2018-03-29T10:24:45.908Z,695
2018-03-29T10:25:47.569Z,735
2018-03-29T10:26:49.219Z,900
2018-03-29T10:27:50.873Z,910
2018-03-29T10:28:52.677Z,745
2018-03-29T10:29:54.338Z,965
2018-03-29T10:30:56.015Z,1020
2018-03-29T10:31:57.683Z,980
2018-03-29T10:32:59.348Z,895
2018-03-29T10:34:01.019Z,660
2018-03-29T10:35:02.679Z,630
2018-03-29T10:36:04.332Z,630
2018-03-29T10:37:05.986Z,585
2018-03-29T10:38:07.637Z,525
2018-03-29T10:39:09.310Z,750
2018-03-29T10:40:10.967Z,1030
2018-03-29T10:41:12.637Z,960
2018-03-29T10:42:14.288Z,805
2018-03-29T10:43:15.947Z,710
2018-03-29T10:44:17.607Z,845
2018-03-29T10:45:19.273Z,1095
2018-03-29T10:46:20.930Z,1160
2018-03-29T10:47:22.588Z,890
2018-03-29T10:48:24.258Z,655
2018-03-29T10:49:25.937Z,600
2018-03-29T10:50:27.594Z,550
2018-03-29T10:51:29.264Z,500
2018-03-29T10:52:30.936Z,455
2018-03-29T10:53:32.591Z,400
2018-03-29T10:54:34.271Z,525
2018-03-29T10:55:35.946Z,725
2018-03-29T10:56:37.610Z,680
2018-03-29T10:57:39.263Z,735
2018-03-29T10:58:40.929Z,860
2018-03-29T10:59:42.586Z,820
2018-03-29T11:00:44.258Z,595
2018-03-29T11:01:48.422Z,420
2018-03-29T11:02:54.003Z,455
2018-03-29T11:03:55.509Z,565
2018-03-29T11:04:57.167Z,715
2018-03-29T11:05:58.824Z,660
2018-03-29T11:07:00.486Z,570
2018-03-29T11:08:02.142Z,525
2018-03-29T11:09:03.931Z,675
2018-03-29T11:10:05.602Z,585
2018-03-29T11:11:07.284Z,680
2018-03-29T11:12:08.951Z,635
2018-03-29T11:13:10.611Z,500
2018-03-29T11:14:12.271Z,520
2018-03-29T11:15:13.937Z,455
2018-03-29T11:16:15.589Z,520
2018-03-29T11:17:20.332Z,590
2018-03-29T11:18:21.768Z,575
2018-03-29T11:19:23.424Z,520
2018-03-29T11:20:25.086Z,495
2018-03-29T11:21:26.744Z,500
2018-03-29T11:22:28.419Z,595
2018-03-29T11:23:30.089Z,640
2018-03-29T11:24:31.800Z,625
2018-03-29T11:25:33.467Z,795
2018-03-29T11:26:35.133Z,1115
2018-03-29T11:27:36.793Z,985
2018-03-29T11:28:38.454Z,840
2018-03-29T11:29:40.186Z,870
2018-03-29T11:30:41.855Z,850
2018-03-29T11:31:43.504Z,935
2018-03-29T11:32:45.172Z,975
2018-03-29T11:33:46.840Z,990
2018-03-29T11:34:48.503Z,1030
2018-03-29T11:35:50.171Z,1100
2018-03-29T11:36:51.831Z,965
2018-03-29T11:37:53.489Z,745
2018-03-29T11:38:55.174Z,570
2018-03-29T11:39:56.833Z,505
2018-03-29T11:40:58.498Z,535
2018-03-29T11:42:00.181Z,625
2018-03-29T11:43:01.835Z,700
2018-03-29T11:44:03.504Z,705
2018-03-29T11:45:05.167Z,715
2018-03-29T11:46:06.842Z,575
2018-03-29T11:47:08.502Z,395
2018-03-29T11:48:10.412Z,335
2018-03-29T11:49:12.075Z,410
2018-03-29T11:50:13.737Z,380
2018-03-29T11:51:15.443Z,300
2018-03-29T11:52:17.103Z,375
2018-03-29T11:53:18.785Z,610
2018-03-29T11:54:20.459Z,755
2018-03-29T11:55:22.130Z,875
2018-03-29T11:56:23.804Z,890
2018-03-29T11:57:25.469Z,685
2018-03-29T11:58:27.121Z,660
2018-03-29T11:59:28.794Z,795
2018-03-29T12:00:30.458Z,830
2018-03-29T12:01:32.116Z,865
2018-03-29T12:02:33.795Z,810
2018-03-29T12:03:35.464Z,3195
2018-03-29T12:04:37.116Z,1200
2018-03-29T12:05:38.815Z,1370
2018-03-29T12:06:40.474Z,1425
2018-03-29T12:07:43.571Z,2155
2018-03-29T12:08:46.664Z,3765
2018-03-29T12:09:48.287Z,3615
2018-03-29T12:10:49.966Z,3630
2018-03-29T12:11:51.659Z,3565
2018-03-29T12:12:53.342Z,3600
2018-03-29T12:13:55.017Z,3455
2018-03-29T12:14:56.691Z,3620
2018-03-29T12:15:58.363Z,3665
2018-03-29T12:17:00.039Z,3535
2018-03-29T12:18:02.040Z,3030
2018-03-29T12:19:03.830Z,3415
2018-03-29T12:20:05.662Z,1740
2018-03-29T12:21:07.337Z,995
2018-03-29T12:22:09.054Z,795
2018-03-29T12:23:10.731Z,675
2018-03-29T12:24:12.407Z,595
2018-03-29T12:25:14.068Z,475
2018-03-29T12:26:15.748Z,320
2018-03-29T12:27:17.424Z,210
2018-03-29T12:28:19.093Z,150
2018-03-29T12:29:20.764Z,115
2018-03-29T12:30:22.447Z,110
2018-03-29T12:31:24.104Z,100
2018-03-29T12:32:25.777Z,80
2018-03-29T12:33:27.437Z,65
2018-03-29T12:34:29.104Z,85
2018-03-29T12:35:30.802Z,115
2018-03-29T12:36:32.537Z,150
2018-03-29T12:37:34.390Z,195
2018-03-29T12:38:36.156Z,265
2018-03-29T12:39:37.877Z,265
2018-03-29T12:40:39.739Z,300
2018-03-29T12:41:41.557Z,340
2018-03-29T12:42:43.213Z,445
2018-03-29T12:43:44.895Z,645
2018-03-29T12:44:47.020Z,895
2018-03-29T12:45:48.760Z,1060
2018-03-29T12:46:50.531Z,1030
2018-03-29T12:47:52.229Z,955
2018-03-29T12:48:53.924Z,875
2018-03-29T12:49:55.581Z,875
2018-03-29T12:50:57.300Z,940
2018-03-29T12:51:58.971Z,995
2018-03-29T12:53:00.662Z,2895
2018-03-29T12:54:02.317Z,1195
2018-03-29T12:55:04.038Z,2395
2018-03-29T12:56:05.776Z,1165
2018-03-29T12:57:07.468Z,1270
2018-03-29T12:58:09.167Z,1265
2018-03-29T12:59:10.859Z,1190
2018-03-29T13:00:12.717Z,1105
2018-03-29T13:01:14.339Z,1045
2018-03-29T13:02:16.009Z,1240
2018-03-29T13:03:17.670Z,1375
2018-03-29T13:04:19.388Z,1260
2018-03-29T13:05:21.055Z,2780
2018-03-29T13:06:22.772Z,2900
2018-03-29T13:07:24.553Z,2705
2018-03-29T13:08:26.249Z,2220
2018-03-29T13:09:27.950Z,2170
2018-03-29T13:10:29.673Z,2535
2018-03-29T13:11:31.532Z,2485
2018-03-29T13:12:33.339Z,685
2018-03-29T13:13:35.014Z,650
2018-03-29T13:14:36.707Z,655
2018-03-29T13:15:38.357Z,680
2018-03-29T13:16:40.272Z,680
2018-03-29T13:17:41.950Z,640
2018-03-29T13:18:43.619Z,600
2018-03-29T13:19:45.412Z,565
2018-03-29T13:20:47.086Z,540
2018-03-29T13:21:48.760Z,460
2018-03-29T13:22:50.421Z,380
2018-03-29T13:23:52.163Z,330
2018-03-29T13:24:53.902Z,315
2018-03-29T13:25:55.566Z,310
2018-03-29T13:26:57.219Z,285
2018-03-29T13:27:58.889Z,245
2018-03-29T13:29:00.553Z,205
2018-03-29T13:30:02.233Z,180
2018-03-29T13:31:03.891Z,185
2018-03-29T13:32:05.569Z,200
2018-03-29T13:33:07.229Z,180
2018-03-29T13:34:08.894Z,140
2018-03-29T13:35:10.569Z,120
2018-03-29T13:36:12.224Z,130
2018-03-29T13:37:13.933Z,150
2018-03-29T13:38:15.586Z,180
2018-03-29T13:39:17.242Z,175
2018-03-29T13:40:18.962Z,180
2018-03-29T13:41:20.654Z,140
2018-03-29T13:42:22.341Z,110
2018-03-29T13:43:24.030Z,105
2018-03-29T13:44:25.666Z,150
2018-03-29T13:45:27.325Z,210
2018-03-29T13:46:28.983Z,325
2018-03-29T13:47:30.643Z,465
2018-03-29T13:48:32.380Z,625
2018-03-29T13:49:34.047Z,1025
2018-03-29T13:50:35.721Z,1295
2018-03-29T13:51:37.373Z,1470
2018-03-29T13:52:39.094Z,1485
2018-03-29T13:53:40.754Z,1425
2018-03-29T13:54:42.418Z,1330
2018-03-29T13:55:44.077Z,1190
2018-03-29T14:02:08.663Z,685
2018-03-29T14:03:10.306Z,690
2018-03-29T14:04:11.968Z,635
2018-03-29T14:05:13.645Z,620
2018-03-29T14:06:15.303Z,610
2018-03-29T14:07:16.969Z,615
2018-03-29T14:08:19.323Z,615
2018-03-29T14:09:21.018Z,595
2018-03-29T14:10:22.963Z,595
2018-03-29T14:11:24.617Z,575
2018-03-29T14:12:26.341Z,565
2018-03-29T14:13:28.176Z,565
2018-03-29T14:14:29.832Z,565
2018-03-29T14:15:31.524Z,560
2018-03-29T14:16:33.236Z,565
2018-03-29T14:17:35.888Z,565
2018-03-29T14:18:37.548Z,560
2018-03-29T14:19:39.234Z,550
2018-03-29T14:20:40.914Z,495
2018-03-29T14:21:42.605Z,670
2018-03-29T14:22:44.446Z,570
2018-03-29T14:23:46.147Z,530
2018-03-29T14:24:47.812Z,755
2018-03-29T14:25:49.468Z,870
2018-03-29T14:26:51.191Z,680
2018-03-29T14:27:52.966Z,605
2018-03-29T14:28:54.871Z,505
2018-03-29T14:29:56.857Z,630
2018-03-29T14:30:58.571Z,520
2018-03-29T14:32:00.233Z,550
2018-03-29T14:33:01.896Z,625
2018-03-29T14:34:03.554Z,835
2018-03-29T14:35:05.220Z,935
2018-03-29T14:36:06.899Z,965
2018-03-29T14:37:08.571Z,900
2018-03-29T14:38:10.353Z,865
2018-03-29T14:39:12.013Z,745
2018-03-29T14:40:13.717Z,745
2018-03-29T14:41:16.539Z,555
2018-03-29T14:42:18.982Z,520
2018-03-29T14:43:21.727Z,530
2018-03-29T14:44:23.374Z,545
2018-03-29T14:45:25.034Z,570
2018-03-29T14:46:26.994Z,550
2018-03-29T14:47:30.506Z,540
2018-03-29T14:48:32.355Z,515
2018-03-29T14:49:34.609Z,515
2018-03-29T14:50:36.768Z,500
2018-03-29T14:51:38.696Z,465
2018-03-29T14:52:40.346Z,435
2018-03-29T14:53:42.005Z,415
2018-03-29T14:54:43.659Z,390